Time;durP1;ratioP1;P1;durP2;ratioP2;P2;SDS_P1;SDS_P2;PMS_P1;PMS_P2;Temp;Humidity;BMP_temperature;BMP_pressure;BME280_temperature;BME280_humidity;BME280_pressure;Samples;Min_cycle;Max_cycle;Signal;HPM_P1;HPM_P2
2023/10/06 00:00:42;;;;;;;14.35;9.38;;;18.00;71.30;;;;;;5076567;28;20067;-63
2023/10/06 00:03:16;;;;;;;16.33;9.50;;;17.90;71.40;;;;;;5076540;28;20032;-64
2023/10/06 00:05:59;;;;;;;17.83;10.68;;;17.90;71.40;;;;;;5072384;28;20475;-64
2023/10/06 00:08:32;;;;;;;14.77;9.63;;;18.00;71.80;;;;;;5076617;28;20078;-64
2023/10/06 00:11:11;;;;;;;14.98;9.75;;;17.90;71.60;;;;;;5076278;28;20028;-64
2023/10/06 00:16:13;;;;;;;18.80;10.40;;;17.80;71.90;;;;;;5077104;28;20070;-64
2023/10/06 00:18:43;;;;;;;16.17;9.85;;;17.80;71.90;;;;;;5076064;28;20507;-64
2023/10/06 00:21:15;;;;;;;14.15;8.75;;;17.70;72.10;;;;;;5076205;28;20063;-63
2023/10/06 00:23:47;;;;;;;14.77;9.23;;;17.70;72.00;;;;;;5076034;28;20028;-63
2023/10/06 00:26:31;;;;;;;14.75;9.57;;;17.60;72.20;;;;;;5075806;28;20353;-63
2023/10/06 00:28:59;;;;;;;16.33;9.68;;;17.70;72.40;;;;;;5076119;28;20020;-63
2023/10/06 00:31:31;;;;;;;14.25;8.73;;;17.70;72.50;;;;;;5076212;28;20078;-64
2023/10/06 00:34:01;;;;;;;13.65;8.70;;;17.70;72.40;;;;;;5075868;28;20028;-64
2023/10/06 00:36:44;;;;;;;13.80;8.57;;;17.70;72.50;;;;;;5076138;28;20025;-64
2023/10/06 00:39:12;;;;;;;15.33;9.03;;;17.70;72.60;;;;;;5076358;28;20070;-63
2023/10/06 00:41:44;;;;;;;15.82;9.45;;;17.70;72.70;;;;;;5075215;28;20049;-63
2023/10/06 00:44:12;;;;;;;14.77;9.02;;;17.70;72.50;;;;;;5075683;28;20028;-63
2023/10/06 00:46:43;;;;;;;15.25;8.90;;;17.60;72.50;;;;;;5076188;28;20339;-64
2023/10/06 00:49:09;;;;;;;15.77;9.82;;;17.60;72.60;;;;;;5075555;28;20048;-64
2023/10/06 00:51:36;;;;;;;13.23;9.07;;;17.60;72.90;;;;;;5075667;28;20059;-63
2023/10/06 00:54:08;;;;;;;15.10;9.52;;;17.50;72.70;;;;;;5076159;28;20016;-63
2023/10/06 00:56:38;;;;;;;15.75;9.43;;;17.50;72.60;;;;;;5075968;28;20039;-64
2023/10/06 00:59:07;;;;;;;16.92;9.93;;;17.50;72.80;;;;;;5075441;28;20028;-64
2023/10/06 01:01:34;;;;;;;15.73;9.80;;;17.40;72.90;;;;;;5076082;28;20024;-64
2023/10/06 01:04:08;;;;;;;15.63;8.38;;;17.40;73.10;;;;;;5057857;28;20020;-64
2023/10/06 01:06:54;;;;;;;15.23;9.25;;;17.40;73.10;;;;;;5073279;28;20032;-64
2023/10/06 01:09:30;;;;;;;13.13;8.50;;;17.30;73.00;;;;;;5075372;28;20071;-64
2023/10/06 01:12:01;;;;;;;13.73;8.43;;;17.30;73.00;;;;;;5075366;28;20024;-64
2023/10/06 01:14:34;;;;;;;;;;;17.20;72.90;;;;;;5075789;28;20445;-64
2023/10/06 01:17:14;;;;;;;12.73;8.52;;;17.20;73.90;;;;;;5075225;28;19905;-64
2023/10/06 01:19:53;;;;;;;15.02;9.10;;;17.20;73.20;;;;;;5075324;28;20162;-64
2023/10/06 01:22:41;;;;;;;13.00;8.20;;;17.10;73.20;;;;;;5075581;28;20055;-64
2023/10/06 01:25:21;;;;;;;14.75;8.68;;;17.10;73.30;;;;;;5074638;28;20033;-64
2023/10/06 01:27:51;;;;;;;14.38;8.45;;;17.00;73.30;;;;;;5075763;28;20149;-64
2023/10/06 01:30:20;;;;;;;14.57;8.90;;;17.00;73.30;;;;;;5075795;28;20442;-64
2023/10/06 01:32:50;;;;;;;12.38;8.27;;;16.90;73.50;;;;;;5075217;28;20438;-63
2023/10/06 01:35:24;;;;;;;15.10;8.60;;;16.90;73.30;;;;;;5075042;28;20037;-64
2023/10/06 01:38:00;;;;;;;;;;;16.80;73.50;;;;;;5075880;28;20116;-64
2023/10/06 01:42:54;;;;;;;16.42;9.02;;;16.70;74.10;;;;;;5075123;28;20476;-64
2023/10/06 01:45:23;;;;;;;14.73;8.73;;;16.70;73.90;;;;;;5075295;28;20473;-64
2023/10/06 01:47:56;;;;;;;13.95;9.43;;;16.70;74.00;;;;;;5075257;28;20442;-64
2023/10/06 01:50:28;;;;;;;13.32;9.13;;;16.70;73.70;;;;;;5075339;28;20037;-64
2023/10/06 01:53:06;;;;;;;16.83;10.68;;;16.70;73.70;;;;;;5075562;28;20024;-64
2023/10/06 01:55:38;;;;;;;17.05;9.32;;;16.60;74.30;;;;;;5075283;28;20033;-64
2023/10/06 01:58:11;;;;;;;16.92;10.38;;;16.50;74.00;;;;;;5074881;28;20024;-64
2023/10/06 02:00:41;;;;;;;18.23;11.32;;;16.50;75.20;;;;;;5075196;28;20028;-64
2023/10/06 02:03:12;;;;;;;16.60;10.75;;;16.50;74.50;;;;;;5057241;28;20024;-64
2023/10/06 02:05:39;;;;;;;15.48;9.90;;;16.40;74.30;;;;;;5074628;28;20112;-64
2023/10/06 02:08:21;;;;;;;13.88;9.00;;;16.40;74.30;;;;;;5075853;28;20036;-64
2023/10/06 02:10:47;;;;;;;13.88;9.52;;;16.40;74.30;;;;;;5079033;28;20040;-63
2023/10/06 02:13:21;;;;;;;16.67;10.15;;;16.40;74.40;;;;;;5078891;28;20025;-64
2023/10/06 02:15:58;;;;;;;13.13;8.73;;;16.40;74.40;;;;;;5060989;28;20048;-64
2023/10/06 02:18:45;;;;;;;16.05;9.38;;;16.40;74.30;;;;;;5061947;28;20349;-63
2023/10/06 02:21:12;;;;;;;14.85;9.30;;;16.40;74.70;;;;;;5078784;28;20036;-64
2023/10/06 02:23:44;;;;;;;15.77;9.90;;;16.40;74.60;;;;;;5060767;28;20506;-64
2023/10/06 02:26:13;;;;;;;14.43;8.85;;;16.50;74.40;;;;;;5078247;28;20111;-64
2023/10/06 02:28:48;;;;;;;14.20;9.45;;;16.50;74.50;;;;;;5078459;28;20037;-64
2023/10/06 02:31:21;;;;;;;15.98;9.00;;;16.50;74.50;;;;;;5078151;28;20053;-63
2023/10/06 02:33:51;;;;;;;13.25;8.65;;;16.50;74.60;;;;;;5060711;28;20055;-64
2023/10/06 02:36:23;;;;;;;15.25;9.13;;;16.60;74.70;;;;;;5078508;28;20143;-64
2023/10/06 02:38:50;;;;;;;15.35;9.05;;;16.60;74.50;;;;;;5060522;28;20150;-64
2023/10/06 02:41:25;;;;;;;14.95;8.90;;;16.50;74.20;;;;;;5077493;28;20053;-64
2023/10/06 02:44:07;;;;;;;14.90;8.98;;;16.60;74.20;;;;;;5078056;28;20049;-63
2023/10/06 02:46:33;;;;;;;13.57;8.45;;;16.50;74.30;;;;;;5077887;28;20426;-64
2023/10/06 02:49:09;;;;;;;14.05;8.48;;;16.50;74.00;;;;;;5078137;28;20025;-63
2023/10/06 02:51:47;;;;;;;15.80;8.27;;;16.50;74.10;;;;;;5077849;28;20074;-63
2023/10/06 02:56:50;;;;;;;15.65;8.43;;;16.40;74.30;;;;;;5077819;28;20112;-63
2023/10/06 02:59:21;;;;;;;13.93;8.27;;;16.40;74.60;;;;;;5077664;28;20468;-64
2023/10/06 03:01:59;;;;;;;14.20;8.80;;;16.40;74.60;;;;;;5078014;28;20032;-63
2023/10/06 03:04:26;;;;;;;15.25;9.57;;;16.40;74.50;;;;;;5077575;28;20025;-64
2023/10/06 03:07:00;;;;;;;14.80;8.40;;;16.40;74.60;;;;;;5077647;28;20045;-64
2023/10/06 03:09:38;;;;;;;14.68;8.73;;;16.40;74.50;;;;;;5077582;28;20450;-63
2023/10/06 03:14:53;;;;;;;17.08;9.50;;;16.40;74.70;;;;;;5077561;28;20138;-64
2023/10/06 03:17:23;;;;;;;15.25;9.48;;;16.40;74.70;;;;;;5059685;28;20036;-64
2023/10/06 03:22:48;;;;;;;17.10;8.15;;;16.30;74.90;;;;;;5035862;28;20032;-64
2023/10/06 03:25:17;;;;;;;14.70;8.73;;;16.30;74.80;;;;;;5035861;28;20029;-63
2023/10/06 03:27:52;;;;;;;11.90;7.75;;;16.30;75.00;;;;;;5035494;28;20029;-65
2023/10/06 03:30:36;;;;;;;13.85;8.23;;;16.30;74.80;;;;;;4996225;28;20114;-64
2023/10/06 03:33:03;;;;;;;13.70;8.15;;;16.20;75.20;;;;;;4996777;28;20042;-63
2023/10/06 03:35:45;;;;;;;16.42;8.48;;;16.20;75.20;;;;;;4996075;28;20065;-64
2023/10/06 03:46:35;;;;;;;15.75;9.23;;;16.20;75.20;;;;;;4919039;29;20078;-64
2023/10/06 03:49:05;;;;;;;13.80;8.35;;;16.20;75.20;;;;;;4919183;29;20382;-63
2023/10/06 03:51:40;;;;;;;16.65;9.50;;;16.10;75.30;;;;;;4918979;29;20048;-64
2023/10/06 03:54:09;;;;;;;17.90;10.25;;;16.10;75.30;;;;;;4952025;29;20115;-64
2023/10/06 03:56:36;;;;;;;13.55;8.27;;;16.20;75.60;;;;;;4956883;29;20043;-63
2023/10/06 03:59:17;;;;;;;12.70;7.63;;;16.20;75.30;;;;;;4956805;29;20508;-63
2023/10/06 04:01:45;;;;;;;14.73;7.53;;;16.20;75.20;;;;;;4957477;29;20051;-63
2023/10/06 04:04:14;;;;;;;14.07;8.07;;;16.30;75.30;;;;;;4956818;29;20055;-63
2023/10/06 04:06:44;;;;;;;14.18;8.30;;;16.30;75.10;;;;;;4956633;29;20034;-63
2023/10/06 04:09:19;;;;;;;13.25;8.13;;;16.30;75.00;;;;;;4975956;28;20453;-64
2023/10/06 04:11:47;;;;;;;14.18;7.95;;;16.30;74.80;;;;;;4976180;28;20039;-63
2023/10/06 04:14:13;;;;;;;13.80;8.00;;;16.30;74.80;;;;;;4975972;28;20073;-63
2023/10/06 04:16:45;;;;;;;13.40;7.82;;;16.30;74.90;;;;;;4996344;28;20091;-63
2023/10/06 04:19:16;;;;;;;14.90;8.23;;;16.30;74.80;;;;;;5036488;28;20029;-63
2023/10/06 04:21:44;;;;;;;12.30;7.80;;;16.30;74.80;;;;;;5051824;28;20478;-64
2023/10/06 04:24:10;;;;;;;13.88;7.90;;;16.30;74.80;;;;;;5036743;28;20028;-63
2023/10/06 04:26:37;;;;;;;14.77;8.63;;;16.30;74.90;;;;;;5036094;28;20029;-63
2023/10/06 04:29:06;;;;;;;13.98;8.63;;;16.30;74.90;;;;;;5036110;28;20025;-63
2023/10/06 04:31:33;;;;;;;12.30;8.18;;;16.20;75.00;;;;;;5035510;28;20112;-63
2023/10/06 04:34:01;;;;;;;12.95;8.18;;;16.20;75.10;;;;;;5036586;28;20056;-63
2023/10/06 04:36:28;;;;;;;13.50;8.23;;;16.30;75.10;;;;;;5035953;28;20061;-63
2023/10/06 04:38:56;;;;;;;11.48;7.20;;;16.30;75.10;;;;;;5051483;28;20469;-63
2023/10/06 04:41:22;;;;;;;11.98;7.20;;;16.30;75.00;;;;;;5061324;28;20059;-63
2023/10/06 04:43:52;;;;;;;14.05;8.05;;;16.30;75.00;;;;;;5076000;28;20024;-63
2023/10/06 04:46:18;;;;;;;13.48;7.68;;;16.20;74.90;;;;;;5075812;28;20422;-63
2023/10/06 04:48:44;;;;;;;13.05;7.32;;;16.20;75.20;;;;;;5075815;28;20025;-63
2023/10/06 04:51:13;;;;;;;13.98;7.78;;;16.20;75.20;;;;;;5075888;28;20028;-63
2023/10/06 04:53:47;;;;;;;14.90;7.97;;;16.20;75.10;;;;;;5075475;28;20350;-63
2023/10/06 04:56:14;;;;;;;13.02;7.68;;;16.20;75.10;;;;;;5075518;28;20028;-64
2023/10/06 04:58:42;;;;;;;12.05;7.20;;;16.20;75.20;;;;;;5075374;28;20039;-63
2023/10/06 05:01:08;;;;;;;11.75;7.38;;;16.20;75.10;;;;;;5075537;28;20024;-63
2023/10/06 05:03:43;;;;;;;12.98;7.30;;;16.10;75.00;;;;;;5076013;28;20029;-64
2023/10/06 05:06:15;;;;;;;14.43;8.00;;;16.10;75.00;;;;;;5075698;28;20029;-63
2023/10/06 05:08:51;;;;;;;12.18;7.68;;;16.00;75.00;;;;;;5058139;28;20028;-63
2023/10/06 05:11:23;;;;;;;13.90;8.13;;;15.90;75.10;;;;;;5075968;28;20024;-63
2023/10/06 05:13:52;;;;;;;12.93;7.45;;;15.90;75.20;;;;;;5075545;28;20029;-63
2023/10/06 05:16:19;;;;;;;13.27;7.60;;;15.90;75.30;;;;;;5075279;28;20028;-63
2023/10/06 05:18:45;;;;;;;16.08;8.05;;;15.90;75.40;;;;;;5075014;28;20025;-63
2023/10/06 05:21:15;;;;;;;16.38;7.95;;;15.90;75.40;;;;;;5057572;28;20380;-64
2023/10/06 05:23:47;;;;;;;13.02;7.25;;;15.90;75.40;;;;;;5075362;28;20366;-63
2023/10/06 05:26:14;;;;;;;14.00;7.78;;;15.90;75.30;;;;;;5075000;28;20450;-63
2023/10/06 05:28:42;;;;;;;11.43;7.15;;;15.90;75.40;;;;;;5075109;28;20020;-63
2023/10/06 05:31:10;;;;;;;14.82;7.90;;;15.90;75.40;;;;;;5075051;28;20337;-63
2023/10/06 05:33:36;;;;;;;13.98;7.35;;;15.90;75.40;;;;;;5075153;28;20066;-63
2023/10/06 05:36:10;;;;;;;14.60;8.60;;;15.90;75.60;;;;;;5057785;28;20036;-64
2023/10/06 05:38:38;;;;;;;;;;;16.00;75.40;;;;;;5075578;28;20437;-63
2023/10/06 05:41:11;;;;;;;13.27;8.23;;;16.00;76.20;;;;;;5074931;28;19927;-63
2023/10/06 05:43:37;;;;;;;14.95;8.57;;;16.00;75.80;;;;;;5077077;28;20445;-63
2023/10/06 05:46:12;;;;;;;17.75;8.63;;;16.00;75.70;;;;;;5079350;28;20013;-63
2023/10/06 05:48:39;;;;;;;15.52;8.27;;;16.00;75.60;;;;;;5079148;28;20108;-63
2023/10/06 05:51:14;;;;;;;14.60;8.52;;;16.10;75.70;;;;;;5079308;28;20028;-63
2023/10/06 05:53:43;;;;;;;15.75;8.88;;;16.10;75.60;;;;;;5078961;28;20029;-64
2023/10/06 05:56:12;;;;;;;16.70;9.07;;;16.20;75.70;;;;;;5078879;28;20030;-64
2023/10/06 05:58:38;;;;;;;14.93;8.88;;;16.30;75.90;;;;;;5079010;28;20029;-63
2023/10/06 06:01:18;;;;;;;15.23;9.40;;;16.40;76.10;;;;;;5078689;28;20039;-63
2023/10/06 06:03:45;;;;;;;17.40;9.90;;;16.70;76.10;;;;;;5079026;28;20028;-62
2023/10/06 06:06:12;;;;;;;16.63;10.07;;;16.90;76.00;;;;;;5061063;28;20032;-62
2023/10/06 06:08:40;;;;;;;16.70;9.43;;;17.20;75.70;;;;;;5061245;28;20436;-62
2023/10/06 06:11:08;;;;;;;20.05;9.55;;;17.50;75.30;;;;;;5060991;28;20016;-62
2023/10/06 06:13:44;;;;;;;14.02;9.77;;;17.70;75.00;;;;;;5061015;28;20326;-63
2023/10/06 06:16:10;;;;;;;18.05;9.82;;;18.00;74.60;;;;;;5060952;28;20361;-64
2023/10/06 06:18:42;;;;;;;17.45;9.68;;;18.20;74.20;;;;;;5078465;28;20497;-73
2023/10/06 06:21:08;;;;;;;17.85;9.90;;;18.50;73.80;;;;;;5078781;28;20062;-64
2023/10/06 06:23:35;;;;;;;19.10;9.15;;;18.80;73.10;;;;;;5078669;28;20020;-63
2023/10/06 06:26:02;;;;;;;16.15;9.40;;;19.00;72.60;;;;;;5078253;28;20120;-69
2023/10/06 06:28:28;;;;;;;29.33;10.88;;;19.30;72.00;;;;;;5078470;28;20025;-63
2023/10/06 06:30:54;;;;;;;20.40;11.27;;;19.60;71.60;;;;;;5060683;28;20035;-63
2023/10/06 06:33:23;;;;;;;18.35;10.27;;;19.80;70.60;;;;;;5078178;28;20025;-64
2023/10/06 06:35:49;;;;;;;16.60;10.75;;;19.90;70.10;;;;;;5078477;28;20046;-63
2023/10/06 06:38:17;;;;;;;16.67;10.05;;;20.10;69.90;;;;;;5060336;28;20342;-64
2023/10/06 06:40:43;;;;;;;16.60;9.27;;;20.30;69.90;;;;;;5076821;28;20059;-62
2023/10/06 06:43:10;;;;;;;21.80;10.38;;;20.50;69.80;;;;;;5077185;28;20020;-62
2023/10/06 06:45:40;;;;;;;19.15;9.57;;;20.70;69.40;;;;;;5076771;28;20035;-62
2023/10/06 06:48:13;;;;;;;16.15;9.20;;;20.90;68.60;;;;;;5076755;28;20090;-62
2023/10/06 06:50:42;;;;;;;12.93;8.63;;;21.10;68.30;;;;;;5077130;28;20052;-64
2023/10/06 06:53:08;;;;;;;15.93;9.45;;;21.20;67.80;;;;;;5076492;28;20028;-65
2023/10/06 06:55:34;;;;;;;14.85;9.63;;;21.40;66.80;;;;;;5076089;28;20028;-65
2023/10/06 06:58:05;;;;;;;13.18;8.55;;;21.50;66.70;;;;;;5076577;28;20146;-65
2023/10/06 07:00:35;;;;;;;15.52;9.48;;;21.70;66.70;;;;;;5076554;28;20036;-65
2023/10/06 07:03:01;;;;;;;14.68;10.23;;;21.90;66.30;;;;;;5076812;28;20051;-65
2023/10/06 07:05:30;;;;;;;15.82;9.25;;;22.00;65.90;;;;;;5076449;28;20074;-65
2023/10/06 07:08:01;;;;;;;13.13;8.32;;;22.10;65.40;;;;;;5076231;28;20020;-65
2023/10/06 07:10:27;;;;;;;12.43;8.57;;;22.10;65.10;;;;;;5077127;28;20028;-65
2023/10/06 07:12:54;;;;;;;15.13;9.88;;;22.30;65.00;;;;;;5076934;28;20100;-65
2023/10/06 07:15:23;;;;;;;15.43;10.45;;;22.30;64.60;;;;;;5076892;28;20450;-65
2023/10/06 07:18:03;;;;;;;16.05;10.02;;;22.40;63.90;;;;;;5076201;28;20024;-65
2023/10/06 07:20:32;;;;;;;14.38;8.77;;;22.60;62.70;;;;;;5076455;28;20039;-64
2023/10/06 07:23:03;;;;;;;14.40;8.55;;;22.70;63.20;;;;;;5076059;28;20456;-64
2023/10/06 07:25:32;;;;;;;15.88;9.63;;;22.80;62.90;;;;;;5076517;28;20036;-65
2023/10/06 07:28:00;;;;;;;13.30;8.95;;;22.90;62.50;;;;;;5076222;28;20095;-65
2023/10/06 07:30:34;;;;;;;12.52;8.38;;;23.00;62.40;;;;;;5076015;28;20028;-64
2023/10/06 07:33:09;;;;;;;13.57;8.88;;;23.20;62.30;;;;;;5060461;28;20020;-64
2023/10/06 07:35:51;;;;;;;13.02;9.18;;;23.30;62.20;;;;;;5076675;28;20035;-64
2023/10/06 07:38:19;;;;;;;16.35;8.40;;;23.40;62.00;;;;;;5076590;28;20081;-65
2023/10/06 07:40:45;;;;;;;11.50;8.00;;;23.50;61.80;;;;;;5016297;28;1692097;-64
2023/10/06 07:43:12;;;;;;;10.52;7.25;;;23.70;61.70;;;;;;5077280;28;20032;-64
2023/10/06 07:45:39;;;;;;;11.90;7.90;;;23.80;61.70;;;;;;5059639;28;20028;-64
2023/10/06 07:48:09;;;;;;;13.85;8.35;;;23.90;61.40;;;;;;5077411;28;20112;-64
2023/10/06 07:50:38;;;;;;;12.55;9.00;;;23.90;61.10;;;;;;5076856;28;20390;-64
2023/10/06 07:53:06;;;;;;;12.80;8.27;;;24.00;60.90;;;;;;5076852;28;20075;-64
2023/10/06 07:55:32;;;;;;;12.27;7.93;;;24.00;60.70;;;;;;5076756;28;20031;-64
2023/10/06 07:58:00;;;;;;;14.90;9.45;;;24.10;60.60;;;;;;5076836;28;20482;-64
2023/10/06 08:00:28;;;;;;;14.63;8.43;;;24.10;60.50;;;;;;5077185;28;20038;-64
2023/10/06 08:03:00;;;;;;;12.02;8.27;;;24.10;60.20;;;;;;5076492;28;20051;-64
2023/10/06 08:05:29;;;;;;;12.48;8.32;;;24.10;60.50;;;;;;5058301;28;20386;-64
2023/10/06 08:07:59;;;;;;;13.95;9.07;;;24.20;60.60;;;;;;5076382;28;20326;-64
2023/10/06 08:10:25;;;;;;;14.55;9.23;;;24.20;60.20;;;;;;5076490;28;20021;-64
2023/10/06 08:13:02;;;;;;;12.02;8.68;;;24.20;60.10;;;;;;5076976;28;20035;-64
2023/10/06 08:15:32;;;;;;;14.70;9.48;;;24.30;59.90;;;;;;5076996;28;20052;-64
2023/10/06 08:17:58;;;;;;;12.00;7.60;;;24.20;58.10;;;;;;5076160;28;20369;-64
2023/10/06 08:20:27;;;;;;;11.45;6.70;;;24.30;56.50;;;;;;5076786;28;20099;-64
2023/10/06 08:22:57;;;;;;;11.07;6.25;;;24.30;56.80;;;;;;5076059;28;20033;-64
2023/10/06 08:25:25;;;;;;;10.50;6.65;;;24.30;55.00;;;;;;5076084;28;20052;-64
2023/10/06 08:27:51;;;;;;;12.65;7.43;;;24.30;53.90;;;;;;5075977;28;20048;-64
2023/10/06 08:30:19;;;;;;;11.45;7.20;;;24.30;54.00;;;;;;5076338;28;20027;-64
2023/10/06 08:32:46;;;;;;;11.40;6.93;;;24.10;52.70;;;;;;5058413;28;20028;-64
2023/10/06 08:35:16;;;;;;;12.85;6.15;;;24.00;53.30;;;;;;5058531;28;20052;-64
2023/10/06 08:37:47;;;;;;;11.45;6.90;;;24.00;54.30;;;;;;5076310;28;20047;-64
2023/10/06 08:40:19;;;;;;;14.27;7.65;;;24.00;53.70;;;;;;5075792;28;20059;-64
2023/10/06 08:42:48;;;;;;;12.15;6.13;;;24.00;54.20;;;;;;5058567;28;20353;-64
2023/10/06 08:45:22;;;;;;;14.13;6.72;;;24.10;53.50;;;;;;5076268;28;20063;-64
2023/10/06 08:47:53;;;;;;;11.90;5.60;;;24.10;54.10;;;;;;5075739;28;20150;-64
2023/10/06 08:50:24;;;;;;;8.02;4.50;;;24.10;52.30;;;;;;5075767;28;20464;-64
2023/10/06 08:52:54;;;;;;;8.45;4.90;;;24.10;52.60;;;;;;5076264;28;20103;-64
2023/10/06 08:55:24;;;;;;;8.27;4.57;;;24.10;51.70;;;;;;5075717;28;20025;-64
2023/10/06 08:57:52;;;;;;;9.13;4.85;;;24.20;52.70;;;;;;5075981;28;20028;-64
2023/10/06 09:00:23;;;;;;;11.77;4.85;;;24.20;51.70;;;;;;5075608;28;20028;-64
2023/10/06 09:02:55;;;;;;;8.10;4.55;;;24.30;51.70;;;;;;5075482;28;20028;-64
2023/10/06 09:05:24;;;;;;;7.55;4.25;;;24.20;48.60;;;;;;5075497;28;20441;-64
2023/10/06 09:08:09;;;;;;;7.10;3.85;;;24.20;48.10;;;;;;5075747;28;20035;-65
2023/10/06 09:10:37;;;;;;;7.78;3.70;;;24.10;48.70;;;;;;5057855;28;20020;-65
2023/10/06 09:13:11;;;;;;;6.88;3.88;;;24.00;47.20;;;;;;5057757;28;20066;-65
2023/10/06 09:15:43;;;;;;;8.50;4.05;;;24.00;47.40;;;;;;5075772;28;20078;-64
2023/10/06 09:18:29;;;;;;;7.57;3.90;;;24.00;47.80;;;;;;5075561;28;20357;-64
2023/10/06 09:21:12;;;;;;;7.70;4.05;;;24.00;47.60;;;;;;5075353;28;20024;-64
2023/10/06 09:23:41;;;;;;;7.80;3.83;;;24.00;47.00;;;;;;5076015;28;20074;-65
2023/10/06 09:26:11;;;;;;;6.95;4.13;;;23.90;48.10;;;;;;5075293;28;20032;-65
2023/10/06 09:28:51;;;;;;;10.02;4.13;;;23.90;48.40;;;;;;5075130;28;20081;-64
2023/10/06 09:31:36;;;;;;;9.05;4.03;;;23.90;48.30;;;;;;5075563;28;20057;-64
2023/10/06 09:34:02;;;;;;;6.85;4.20;;;23.90;49.00;;;;;;5075554;28;20020;-64
2023/10/06 09:36:33;;;;;;;6.65;4.20;;;23.70;48.10;;;;;;5057647;28;20051;-64
2023/10/06 09:39:00;;;;;;;6.20;3.75;;;23.80;48.90;;;;;;5075030;28;20032;-64
2023/10/06 09:41:29;;;;;;;8.07;4.20;;;23.90;48.20;;;;;;5075110;28;20044;-64
2023/10/06 09:44:09;;;;;;;8.38;4.10;;;23.90;47.50;;;;;;5057626;28;20024;-64
2023/10/06 09:46:35;;;;;;;6.68;3.60;;;23.90;46.40;;;;;;5059094;28;20106;-64
2023/10/06 09:49:05;;;;;;;7.88;3.78;;;24.00;47.00;;;;;;5075318;28;20037;-64
2023/10/06 09:51:38;;;;;;;9.43;3.90;;;24.10;45.60;;;;;;5075107;28;20154;-65
2023/10/06 09:54:09;;;;;;;6.65;3.78;;;24.10;45.10;;;;;;5075303;28;20020;-65
2023/10/06 09:56:36;;;;;;;7.38;3.80;;;24.20;44.20;;;;;;5057392;28;20024;-65
2023/10/06 09:59:07;;;;;;;9.05;3.50;;;24.20;45.10;;;;;;5057354;28;20040;-65
2023/10/06 10:01:36;;;;;;;6.55;3.30;;;24.30;44.80;;;;;;5058003;28;20025;-65
2023/10/06 10:04:03;;;;;;;8.00;3.53;;;24.40;45.00;;;;;;5075131;28;20032;-65
2023/10/06 10:06:32;;;;;;;6.22;3.45;;;24.40;45.40;;;;;;5075093;28;20032;-64
2023/10/06 10:08:58;;;;;;;6.03;3.05;;;24.40;44.20;;;;;;5075040;28;20111;-65
2023/10/06 10:11:29;;;;;;;5.95;3.05;;;24.40;42.90;;;;;;5074869;28;20052;-64
2023/10/06 10:14:25;;;;;;;6.18;3.53;;;24.40;43.20;;;;;;5075438;28;20028;-65
2023/10/06 10:17:29;;;;;;;6.72;3.25;;;24.50;42.00;;;;;;5075448;28;20028;-65
2023/10/06 10:20:00;;;;;;;5.05;3.03;;;24.50;42.60;;;;;;5075326;28;20044;-65
2023/10/06 10:22:31;;;;;;;5.05;3.22;;;24.50;41.80;;;;;;5074771;28;20402;-65
2023/10/06 10:25:00;;;;;;;8.98;3.42;;;24.50;42.60;;;;;;5074559;28;20090;-64
2023/10/06 10:27:33;;;;;;;6.82;3.50;;;24.50;40.80;;;;;;5075209;28;20020;-65
2023/10/06 10:30:08;;;;;;;5.55;3.33;;;24.50;41.60;;;;;;5076911;28;20032;-65
2023/10/06 10:32:42;;;;;;;5.90;3.28;;;24.40;41.60;;;;;;5078870;28;20345;-64
2023/10/06 10:35:16;;;;;;;5.57;2.90;;;24.40;42.20;;;;;;5078489;28;20048;-64
2023/10/06 10:37:58;;;;;;;4.35;2.78;;;24.40;42.70;;;;;;5078120;28;20056;-64
2023/10/06 10:40:45;;;;;;;5.03;3.08;;;24.50;42.70;;;;;;5043226;28;20389;-64
2023/10/06 10:43:15;;;;;;;6.70;3.58;;;24.60;42.60;;;;;;5078051;28;20484;-64
2023/10/06 10:45:46;;;;;;;6.40;3.22;;;24.60;41.90;;;;;;5077939;28;20033;-65
2023/10/06 10:48:14;;;;;;;6.57;3.47;;;24.60;42.90;;;;;;5077988;28;20111;-65
2023/10/06 10:51:06;;;;;;;7.57;3.63;;;24.60;42.50;;;;;;5060751;28;20067;-65
2023/10/06 10:53:41;;;;;;;7.00;3.55;;;24.70;42.00;;;;;;5078519;28;20099;-64
2023/10/06 10:56:49;;;;;;;6.72;3.90;;;24.90;41.90;;;;;;5077936;28;20087;-64
2023/10/06 10:59:16;;;;;;;5.60;3.50;;;24.90;41.80;;;;;;5077785;28;20066;-65
2023/10/06 11:01:44;;;;;;;8.90;3.58;;;25.10;42.00;;;;;;5078367;28;20055;-65
2023/10/06 11:06:46;;;;;;;5.10;3.47;;;25.20;40.70;;;;;;5077686;28;20120;-65
2023/10/06 11:12:17;;;;;;;6.22;3.45;;;25.40;41.30;;;;;;5077964;28;20032;-65
2023/10/06 11:14:43;;;;;;;5.90;3.35;;;25.40;41.50;;;;;;5078174;28;20030;-65
2023/10/06 11:17:13;;;;;;;8.68;3.67;;;25.30;41.90;;;;;;5077451;28;20078;-65
2023/10/06 11:19:40;;;;;;;6.20;3.60;;;25.40;41.90;;;;;;5077751;28;20027;-65
2023/10/06 11:22:19;;;;;;;5.45;3.38;;;25.40;41.50;;;;;;5077374;28;20028;-65
2023/10/06 11:24:48;;;;;;;7.95;3.22;;;25.50;41.30;;;;;;5077617;28;20046;-65
2023/10/06 11:27:24;;;;;;;5.38;3.28;;;25.50;41.80;;;;;;5077798;28;20466;-65
2023/10/06 11:29:59;;;;;;;6.05;3.22;;;25.50;41.80;;;;;;5077339;28;20111;-65
2023/10/06 11:32:28;;;;;;;6.00;3.20;;;25.70;41.60;;;;;;5077565;28;20029;-65
2023/10/06 11:34:55;;;;;;;5.53;3.10;;;25.70;41.10;;;;;;5060013;28;20028;-65
2023/10/06 11:37:25;;;;;;;6.88;3.40;;;25.80;39.90;;;;;;5059744;28;20024;-65
2023/10/06 11:39:57;;;;;;;6.30;3.22;;;25.80;38.70;;;;;;5076635;28;20065;-65
2023/10/06 11:42:25;;;;;;;5.53;3.25;;;25.90;39.40;;;;;;5076193;28;20083;-65
2023/10/06 11:44:52;;;;;;;5.78;3.08;;;25.80;38.60;;;;;;5076933;28;20106;-65
2023/10/06 11:47:37;;;;;;;7.85;3.30;;;25.80;39.40;;;;;;5076906;28;20077;-65
2023/10/06 11:50:14;;;;;;;6.13;3.20;;;25.90;40.10;;;;;;5077161;28;20449;-64
2023/10/06 11:52:45;;;;;;;6.75;3.40;;;25.90;38.60;;;;;;5077084;28;20032;-64
2023/10/06 11:55:14;;;;;;;7.18;3.58;;;25.90;39.80;;;;;;5077095;28;20028;-64
2023/10/06 11:57:47;;;;;;;6.13;3.25;;;25.90;39.10;;;;;;5059033;28;20114;-64
2023/10/06 12:00:20;;;;;;;6.10;3.40;;;25.90;38.20;;;;;;5076641;28;20036;-64
2023/10/06 12:02:50;;;;;;;6.63;3.40;;;25.80;38.90;;;;;;5059927;28;20322;-64
2023/10/06 12:05:18;;;;;;;6.70;3.25;;;25.80;38.90;;;;;;5076749;28;20035;-64
2023/10/06 12:07:50;;;;;;;6.07;3.58;;;25.80;38.40;;;;;;5059081;28;20150;-64
2023/10/06 12:10:23;;;;;;;7.45;3.40;;;25.80;39.20;;;;;;5076499;28;20056;-64
2023/10/06 12:12:52;;;;;;;6.22;3.35;;;25.80;38.60;;;;;;5076462;28;20098;-64
2023/10/06 12:15:18;;;;;;;5.32;3.30;;;25.80;39.50;;;;;;5077076;28;20028;-65
2023/10/06 12:17:45;;;;;;;6.88;3.60;;;25.90;39.80;;;;;;5076207;28;20032;-64
2023/10/06 12:20:18;;;;;;;7.68;3.28;;;25.90;39.10;;;;;;5076497;28;20035;-64
2023/10/06 12:22:46;;;;;;;8.68;3.88;;;25.90;40.30;;;;;;5076408;28;20046;-64
2023/10/06 12:25:19;;;;;;;7.85;3.83;;;26.00;40.10;;;;;;5076829;28;20024;-64
2023/10/06 12:27:47;;;;;;;7.47;3.50;;;26.00;40.30;;;;;;5076655;28;20032;-64
2023/10/06 12:30:14;;;;;;;5.78;3.42;;;26.00;40.40;;;;;;5076028;28;20028;-64
2023/10/06 12:32:42;;;;;;;7.25;3.53;;;26.00;40.20;;;;;;5076314;28;20028;-64
2023/10/06 12:35:09;;;;;;;6.35;3.47;;;25.90;40.40;;;;;;5076307;28;20020;-65
2023/10/06 12:37:40;;;;;;;7.47;3.70;;;25.90;39.80;;;;;;5075912;28;20043;-65
2023/10/06 12:40:09;;;;;;;5.75;3.35;;;25.80;38.70;;;;;;5076219;28;20093;-65
2023/10/06 12:42:38;;;;;;;6.05;3.50;;;25.70;39.80;;;;;;5075648;28;20102;-65
2023/10/06 12:45:12;;;;;;;6.47;3.40;;;25.80;40.00;;;;;;5075762;28;20020;-65
2023/10/06 12:47:39;;;;;;;8.45;3.40;;;25.80;39.90;;;;;;5075725;28;20025;-65
2023/10/06 12:50:08;;;;;;;7.38;3.80;;;25.90;38.90;;;;;;5058618;28;20030;-65
2023/10/06 12:52:37;;;;;;;8.00;3.58;;;25.90;39.00;;;;;;5075334;28;20021;-65
2023/10/06 12:55:12;;;;;;;8.60;3.60;;;25.80;39.50;;;;;;5058345;28;20048;-65
2023/10/06 12:57:41;;;;;;;7.28;3.50;;;25.80;38.90;;;;;;5059184;28;20032;-64
2023/10/06 13:00:11;;;;;;;5.28;3.08;;;25.90;39.90;;;;;;5075891;28;20446;-65
2023/10/06 13:02:41;;;;;;;5.50;3.40;;;25.90;40.20;;;;;;5076145;28;20082;-65
2023/10/06 13:05:18;;;;;;;6.70;3.60;;;25.90;40.10;;;;;;5076030;28;20438;-64
2023/10/06 13:07:46;;;;;;;6.75;3.17;;;25.90;40.10;;;;;;5075761;28;20028;-65
2023/10/06 13:10:22;;;;;;;6.57;3.60;;;25.90;40.50;;;;;;5075378;28;20025;-64
2023/10/06 13:12:50;;;;;;;5.97;3.42;;;25.90;40.10;;;;;;5075483;28;20028;-65
2023/10/06 13:15:20;;;;;;;7.55;3.58;;;25.90;40.50;;;;;;5075998;28;20028;-65
2023/10/06 13:17:48;;;;;;;8.50;3.78;;;25.80;40.40;;;;;;5075234;28;20111;-65
2023/10/06 13:20:17;;;;;;;5.82;3.42;;;25.80;39.50;;;;;;5057905;28;20115;-64
2023/10/06 13:22:49;;;;;;;7.13;3.65;;;25.80;39.20;;;;;;5075886;28;20028;-65
2023/10/06 13:25:18;;;;;;;5.88;3.20;;;25.90;39.50;;;;;;5075269;28;20033;-64
2023/10/06 13:27:55;;;;;;;5.85;3.25;;;25.90;39.80;;;;;;5075636;28;20096;-65